createdAt,value
2023-09-23T00:00:15.193Z,14.10
2023-09-23T00:02:44.880Z,14.20
2023-09-23T00:05:17.889Z,14.20
2023-09-23T00:07:46.429Z,13.90
2023-09-23T00:10:15.277Z,13.80
2023-09-23T00:12:46.205Z,13.90
2023-09-23T00:15:17.486Z,14.00
2023-09-23T00:17:47.971Z,14.00
2023-09-23T00:20:18.513Z,14.10
2023-09-23T00:22:47.862Z,14.10
2023-09-23T00:25:19.977Z,14.00
2023-09-23T00:27:50.233Z,14.10
2023-09-23T00:30:19.296Z,13.70
2023-09-23T00:32:50.073Z,13.80
2023-09-23T00:35:20.258Z,14.00
2023-09-23T00:37:50.110Z,14.00
2023-09-23T00:40:25.777Z,14.00
2023-09-23T00:42:58.546Z,13.90
2023-09-23T00:45:30.621Z,14.00
2023-09-23T00:47:59.397Z,14.00
2023-09-23T00:50:30.831Z,14.00
2023-09-23T00:53:00.256Z,14.00
2023-09-23T00:55:32.389Z,14.00
2023-09-23T00:58:02.406Z,13.80
2023-09-23T01:00:33.153Z,13.60
2023-09-23T01:03:01.651Z,13.80
2023-09-23T01:05:30.955Z,13.80
2023-09-23T01:08:12.509Z,13.90
2023-09-23T01:10:41.177Z,13.90
2023-09-23T01:13:13.952Z,13.80
2023-09-23T01:15:42.678Z,13.90
2023-09-23T01:18:15.066Z,13.70
2023-09-23T01:20:44.498Z,13.70
2023-09-23T01:23:14.845Z,13.80
2023-09-23T01:25:43.204Z,13.70
2023-09-23T01:28:12.497Z,13.50
2023-09-23T01:30:41.769Z,13.30
2023-09-23T01:33:11.843Z,13.50
2023-09-23T01:35:40.107Z,13.50
2023-09-23T01:38:08.596Z,13.60
2023-09-23T01:40:40.832Z,13.60
2023-09-23T01:43:11.183Z,13.50
2023-09-23T01:45:39.722Z,13.50
2023-09-23T01:48:09.405Z,13.50
2023-09-23T01:50:40.220Z,13.50
2023-09-23T01:53:09.966Z,13.30
2023-09-23T01:55:39.818Z,13.40
2023-09-23T01:58:08.780Z,13.30
2023-09-23T02:00:37.306Z,13.30
2023-09-23T02:03:06.565Z,13.40
2023-09-23T02:05:34.821Z,13.40
2023-09-23T02:08:03.298Z,13.40
2023-09-23T02:10:31.716Z,13.30
2023-09-23T02:13:01.590Z,13.00
2023-09-23T02:15:29.887Z,12.90
2023-09-23T02:17:58.467Z,12.80
2023-09-23T02:20:27.326Z,12.90
2023-09-23T02:22:56.821Z,13.00
2023-09-23T02:25:26.917Z,13.00
2023-09-23T02:27:56.734Z,13.10
2023-09-23T02:30:27.520Z,13.10
2023-09-23T02:32:56.341Z,13.00
2023-09-23T02:35:26.575Z,12.90
2023-09-23T02:37:55.969Z,13.00
2023-09-23T02:40:28.745Z,12.90
2023-09-23T02:42:58.925Z,13.00
2023-09-23T02:45:29.018Z,13.10
2023-09-23T02:47:57.515Z,13.00
2023-09-23T02:50:27.202Z,13.10
2023-09-23T02:52:55.818Z,13.20
2023-09-23T02:55:24.403Z,13.20
2023-09-23T02:57:55.428Z,13.20
2023-09-23T03:00:25.844Z,13.20
2023-09-23T03:02:57.620Z,13.10
2023-09-23T03:05:28.810Z,13.30
2023-09-23T03:07:59.572Z,13.30
2023-09-23T03:10:40.716Z,13.20
2023-09-23T03:13:13.201Z,13.20
2023-09-23T03:15:46.477Z,13.00
2023-09-23T03:18:17.335Z,13.20
2023-09-23T03:20:46.012Z,13.00
2023-09-23T03:23:14.547Z,12.90
2023-09-23T03:25:47.807Z,13.00
2023-09-23T03:28:18.302Z,13.10
2023-09-23T03:30:49.733Z,13.00
2023-09-23T03:33:20.650Z,13.00
2023-09-23T03:35:49.341Z,13.10
2023-09-23T03:38:18.037Z,13.00
2023-09-23T03:40:53.079Z,13.00
2023-09-23T03:43:22.249Z,13.00
2023-09-23T03:45:52.739Z,12.90
2023-09-23T03:48:22.816Z,12.90
2023-09-23T03:50:54.401Z,13.10
2023-09-23T03:53:24.257Z,13.00
2023-09-23T03:55:55.959Z,12.90
2023-09-23T03:58:25.956Z,12.70
2023-09-23T04:00:56.343Z,12.80
2023-09-23T04:03:26.958Z,12.80
2023-09-23T04:05:56.402Z,12.90
2023-09-23T04:08:24.835Z,12.90
2023-09-23T04:10:53.114Z,13.00
2023-09-23T04:13:21.522Z,12.90
2023-09-23T04:15:50.230Z,13.00
2023-09-23T04:18:19.867Z,12.80
2023-09-23T04:20:52.241Z,12.90
2023-09-23T04:23:20.786Z,13.00
2023-09-23T04:25:51.172Z,12.80
2023-09-23T04:28:20.484Z,12.80
2023-09-23T04:30:48.951Z,12.90
2023-09-23T04:33:17.265Z,13.00
2023-09-23T04:35:45.948Z,12.90
2023-09-23T04:38:16.181Z,13.00
2023-09-23T04:40:44.747Z,13.10
2023-09-23T04:43:13.805Z,13.00
2023-09-23T04:45:42.124Z,13.00
2023-09-23T04:48:11.428Z,13.00
2023-09-23T04:50:41.090Z,13.10
2023-09-23T04:53:09.604Z,13.00
2023-09-23T04:55:39.854Z,13.00
2023-09-23T04:58:10.328Z,13.00
2023-09-23T05:00:39.163Z,13.10
2023-09-23T05:03:09.867Z,13.20
2023-09-23T05:05:38.705Z,13.00
2023-09-23T05:08:11.133Z,13.10
2023-09-23T05:10:42.815Z,13.00
2023-09-23T05:13:11.678Z,13.00
2023-09-23T05:15:40.079Z,13.20
2023-09-23T05:18:10.090Z,13.00
2023-09-23T05:20:38.685Z,13.20
2023-09-23T05:23:08.547Z,13.20
2023-09-23T05:25:38.439Z,13.10
2023-09-23T05:28:11.636Z,13.20
2023-09-23T05:30:40.344Z,13.20
2023-09-23T05:33:10.116Z,13.20
2023-09-23T05:35:40.374Z,13.10
2023-09-23T05:38:11.136Z,13.20
2023-09-23T05:40:39.588Z,13.20
2023-09-23T05:43:09.330Z,13.20
2023-09-23T05:45:38.422Z,13.20
2023-09-23T05:48:08.074Z,13.30
2023-09-23T05:50:37.252Z,13.20
2023-09-23T05:53:06.316Z,13.10
2023-09-23T05:55:35.656Z,13.20
2023-09-23T05:58:03.931Z,13.10
2023-09-23T06:00:33.849Z,13.00
2023-09-23T06:03:02.353Z,13.20
2023-09-23T06:05:31.007Z,13.10
2023-09-23T06:07:59.474Z,13.10
2023-09-23T06:10:28.140Z,12.90
2023-09-23T06:12:57.420Z,13.00
2023-09-23T06:15:27.818Z,13.20
2023-09-23T06:17:57.832Z,13.30
2023-09-23T06:20:27.655Z,13.10
2023-09-23T06:22:56.154Z,13.10
2023-09-23T06:25:24.952Z,13.10
2023-09-23T06:27:54.036Z,13.10
2023-09-23T06:30:22.902Z,13.30
2023-09-23T06:32:51.597Z,13.20
2023-09-23T06:35:21.592Z,13.30
2023-09-23T06:37:49.960Z,13.30
2023-09-23T06:40:18.468Z,13.30
2023-09-23T06:42:48.476Z,13.40
2023-09-23T06:45:17.169Z,13.30
2023-09-23T06:47:46.158Z,13.30
2023-09-23T06:50:15.370Z,13.40
2023-09-23T06:52:46.492Z,13.40
2023-09-23T06:55:14.727Z,13.30
2023-09-23T06:57:43.232Z,13.40
2023-09-23T07:00:12.750Z,13.40
2023-09-23T07:02:41.112Z,13.50
2023-09-23T07:05:10.977Z,13.50
2023-09-23T07:07:39.936Z,13.40
2023-09-23T07:10:11.209Z,13.40
2023-09-23T07:12:39.671Z,13.60
2023-09-23T07:15:09.638Z,13.50
2023-09-23T07:17:38.194Z,13.50
2023-09-23T07:20:08.088Z,13.60
2023-09-23T07:22:36.426Z,13.60
2023-09-23T07:25:06.088Z,13.60
2023-09-23T07:27:36.064Z,13.70
2023-09-23T07:30:05.240Z,13.70
2023-09-23T07:32:33.668Z,13.80
2023-09-23T07:35:02.139Z,13.80
2023-09-23T07:37:30.625Z,13.80
2023-09-23T07:39:58.899Z,13.80
2023-09-23T07:42:27.848Z,13.80
2023-09-23T07:44:57.815Z,13.70
2023-09-23T07:47:26.268Z,13.80
2023-09-23T07:49:54.664Z,13.80
2023-09-23T07:52:23.090Z,13.90
2023-09-23T07:54:51.350Z,13.80
2023-09-23T07:57:20.512Z,13.90
2023-09-23T07:59:49.000Z,13.90
2023-09-23T08:02:20.121Z,13.90
2023-09-23T08:04:48.860Z,13.80
2023-09-23T08:07:17.317Z,13.90
2023-09-23T08:09:45.858Z,13.90
2023-09-23T08:12:14.648Z,14.00
2023-09-23T08:14:42.798Z,14.00
2023-09-23T08:17:11.711Z,14.00
2023-09-23T08:19:41.705Z,14.10
2023-09-23T08:22:10.329Z,14.10
2023-09-23T08:24:39.202Z,14.10
2023-09-23T08:27:07.536Z,14.10
2023-09-23T08:29:35.842Z,14.10
2023-09-23T08:32:04.554Z,14.10
2023-09-23T08:34:32.806Z,14.20
2023-09-23T08:37:02.658Z,14.20
2023-09-23T08:39:30.941Z,14.30
2023-09-23T08:42:00.658Z,14.30
2023-09-23T08:44:31.088Z,14.40
2023-09-23T08:47:01.306Z,14.50
2023-09-23T08:49:31.188Z,14.50
2023-09-23T08:52:01.826Z,14.50
2023-09-23T08:54:32.915Z,14.60
2023-09-23T08:57:01.605Z,14.60
2023-09-23T08:59:30.564Z,14.70
2023-09-23T09:01:59.112Z,14.60
2023-09-23T09:04:28.664Z,14.80
2023-09-23T09:06:58.297Z,15.00
2023-09-23T09:09:28.197Z,15.00
2023-09-23T09:11:58.014Z,15.10
2023-09-23T09:14:26.378Z,15.20
2023-09-23T09:16:55.724Z,15.20
2023-09-23T09:19:24.364Z,15.30
2023-09-23T09:21:53.094Z,15.20
2023-09-23T09:24:23.958Z,15.20
2023-09-23T09:26:55.097Z,15.20
2023-09-23T09:29:23.944Z,15.20
2023-09-23T09:31:53.366Z,15.20
2023-09-23T09:34:26.814Z,15.30
2023-09-23T09:36:58.004Z,15.40
2023-09-23T09:39:31.415Z,15.70
2023-09-23T09:42:04.444Z,16.00
2023-09-23T09:44:35.430Z,16.10
2023-09-23T09:47:05.666Z,16.10
2023-09-23T09:49:34.684Z,16.20
2023-09-23T09:52:05.119Z,16.10
2023-09-23T09:54:33.799Z,16.10
2023-09-23T09:57:08.317Z,16.00
2023-09-23T09:59:39.257Z,16.00
2023-09-23T10:02:09.336Z,16.50
2023-09-23T10:04:37.821Z,16.50
2023-09-23T10:07:09.529Z,16.30
2023-09-23T10:09:40.372Z,16.40
2023-09-23T10:12:12.927Z,16.30
2023-09-23T10:14:41.335Z,16.10
2023-09-23T10:17:12.212Z,16.40
2023-09-23T10:19:43.152Z,16.70
2023-09-23T10:22:18.482Z,16.70
2023-09-23T10:24:48.405Z,16.80
2023-09-23T10:27:22.540Z,16.90
2023-09-23T10:29:51.403Z,16.70
2023-09-23T10:32:20.499Z,16.60
2023-09-23T10:34:50.289Z,16.50
2023-09-23T10:37:32.206Z,16.80
2023-09-23T10:40:10.621Z,16.70
2023-09-23T10:42:42.539Z,17.00
2023-09-23T10:45:12.342Z,17.00
2023-09-23T10:47:41.354Z,16.90
2023-09-23T10:50:11.115Z,16.80
2023-09-23T10:52:40.746Z,16.60
2023-09-23T10:55:12.350Z,16.70
2023-09-23T10:57:43.048Z,16.70
2023-09-23T11:00:18.431Z,16.70
2023-09-23T11:02:47.787Z,16.60
2023-09-23T11:05:17.123Z,16.50
2023-09-23T11:07:46.355Z,16.60
2023-09-23T11:10:15.896Z,16.50
2023-09-23T11:12:46.378Z,16.40
2023-09-23T11:15:15.393Z,16.50
2023-09-23T11:17:45.026Z,16.60
2023-09-23T11:20:13.690Z,16.80
2023-09-23T11:22:44.466Z,17.00
2023-09-23T11:25:13.827Z,17.00
2023-09-23T11:27:48.530Z,17.00
2023-09-23T11:30:18.698Z,16.90
2023-09-23T11:32:52.785Z,16.70
2023-09-23T11:35:22.129Z,16.90
2023-09-23T11:37:51.426Z,17.00
2023-09-23T11:40:19.947Z,17.10
2023-09-23T11:42:48.199Z,17.10
2023-09-23T11:45:18.112Z,16.80
2023-09-23T11:47:46.507Z,17.10
2023-09-23T11:50:15.305Z,17.10
2023-09-23T11:52:44.091Z,17.20
2023-09-23T11:55:14.228Z,17.20
2023-09-23T11:57:43.206Z,17.30
2023-09-23T12:00:12.728Z,17.50
2023-09-23T12:02:43.398Z,17.50
2023-09-23T12:05:13.953Z,17.50
2023-09-23T12:07:42.847Z,17.40
2023-09-23T12:10:14.667Z,17.60
2023-09-23T12:12:45.963Z,17.60
2023-09-23T12:15:14.385Z,17.60
2023-09-23T12:17:44.150Z,17.60
2023-09-23T12:20:15.429Z,17.80
2023-09-23T12:22:46.447Z,17.90
2023-09-23T12:25:15.724Z,18.00
2023-09-23T12:27:43.999Z,17.90
2023-09-23T12:30:15.390Z,18.00
2023-09-23T12:32:45.344Z,18.00
2023-09-23T12:35:14.060Z,18.00
2023-09-23T12:37:42.751Z,17.80
2023-09-23T12:40:12.124Z,17.70
2023-09-23T12:42:40.518Z,17.80
2023-09-23T12:45:09.509Z,17.90
2023-09-23T12:47:54.937Z,18.00
2023-09-23T12:50:26.638Z,17.70
2023-09-23T12:52:55.642Z,18.10
2023-09-23T12:55:26.217Z,18.10
2023-09-23T12:57:56.541Z,18.00
2023-09-23T13:00:24.916Z,18.30
2023-09-23T13:02:53.580Z,18.20
2023-09-23T13:05:23.057Z,17.80
2023-09-23T13:07:53.118Z,18.10
2023-09-23T13:10:24.072Z,18.20
2023-09-23T13:12:53.173Z,18.20
2023-09-23T13:15:22.952Z,18.50
2023-09-23T13:17:52.460Z,18.80
2023-09-23T13:20:21.343Z,18.60
2023-09-23T13:22:52.426Z,18.60
2023-09-23T13:25:21.419Z,18.50
2023-09-23T13:27:50.368Z,18.60
2023-09-23T13:30:20.018Z,18.50
2023-09-23T13:32:48.647Z,18.40
2023-09-23T13:35:19.829Z,18.00
2023-09-23T13:37:48.040Z,18.00
2023-09-23T13:40:18.255Z,17.90
2023-09-23T13:42:46.854Z,17.90
2023-09-23T13:45:15.539Z,17.90
2023-09-23T13:47:43.985Z,18.10
2023-09-23T13:50:12.796Z,18.30
2023-09-23T13:52:42.215Z,18.30
2023-09-23T13:55:12.203Z,18.50
2023-09-23T13:57:41.705Z,18.60
2023-09-23T14:00:13.876Z,18.40
2023-09-23T14:02:42.289Z,18.40
2023-09-23T14:05:12.347Z,18.20
2023-09-23T14:07:40.834Z,18.10
2023-09-23T14:10:21.406Z,18.30
2023-09-23T14:12:52.462Z,18.50
2023-09-23T14:15:20.870Z,18.70
2023-09-23T14:17:49.545Z,18.80
2023-09-23T14:20:18.350Z,19.30
2023-09-23T14:22:50.462Z,19.70
2023-09-23T14:25:20.171Z,19.80
2023-09-23T14:27:48.621Z,19.60
2023-09-23T14:30:20.387Z,19.30
2023-09-23T14:32:48.932Z,19.30
2023-09-23T14:35:17.253Z,19.40
2023-09-23T14:37:46.397Z,19.40
2023-09-23T14:40:14.647Z,19.30
2023-09-23T14:42:43.583Z,19.20
2023-09-23T14:45:13.206Z,19.20
2023-09-23T14:47:46.439Z,19.00
2023-09-23T14:50:15.214Z,19.20
2023-09-23T14:52:44.053Z,19.30
2023-09-23T14:55:12.756Z,19.30
2023-09-23T14:57:42.497Z,19.40
2023-09-23T15:00:12.588Z,19.40
2023-09-23T15:02:46.036Z,19.50
2023-09-23T15:05:14.580Z,19.50
2023-09-23T15:07:43.058Z,19.40
2023-09-23T15:10:13.109Z,19.40
2023-09-23T15:12:42.681Z,19.30
2023-09-23T15:15:12.057Z,19.20
2023-09-23T15:17:42.393Z,19.20
2023-09-23T15:20:13.905Z,18.80
2023-09-23T15:22:42.665Z,18.70
2023-09-23T15:25:12.815Z,18.70
2023-09-23T15:27:41.090Z,18.30
2023-09-23T15:30:10.439Z,18.30
2023-09-23T15:32:39.622Z,18.40
2023-09-23T15:35:09.758Z,18.40
2023-09-23T15:37:39.835Z,18.30
2023-09-23T15:40:11.353Z,18.10
2023-09-23T15:42:40.167Z,18.10
2023-09-23T15:45:10.277Z,18.20
2023-09-23T15:47:41.084Z,18.10
2023-09-23T15:50:11.366Z,17.80
2023-09-23T15:52:43.738Z,18.00
2023-09-23T15:55:17.375Z,17.80
2023-09-23T15:57:45.916Z,17.70
2023-09-23T16:00:15.739Z,17.80
2023-09-23T16:02:44.176Z,17.70
2023-09-23T16:05:14.083Z,17.50
2023-09-23T16:07:44.097Z,17.40
2023-09-23T16:10:14.391Z,17.60
2023-09-23T16:12:42.955Z,17.40
2023-09-23T16:15:11.548Z,17.60
2023-09-23T16:17:40.147Z,17.60
2023-09-23T16:20:11.094Z,17.60
2023-09-23T16:22:39.417Z,17.70
2023-09-23T16:25:11.187Z,17.60
2023-09-23T16:27:42.122Z,17.60
2023-09-23T16:30:11.734Z,17.50
2023-09-23T16:32:40.595Z,17.40
2023-09-23T16:35:11.351Z,17.40
2023-09-23T16:37:39.819Z,17.40
2023-09-23T16:40:11.446Z,17.20
2023-09-23T16:42:40.145Z,17.20
2023-09-23T16:45:09.618Z,17.30
2023-09-23T16:47:38.069Z,17.20
2023-09-23T16:50:08.899Z,16.80
2023-09-23T16:52:37.802Z,16.90
2023-09-23T16:55:06.415Z,16.60
2023-09-23T16:57:36.262Z,16.90
2023-09-23T17:00:07.023Z,16.90
2023-09-23T17:02:35.649Z,17.10
2023-09-23T17:05:04.501Z,17.00
2023-09-23T17:07:33.870Z,17.00
2023-09-23T17:10:02.210Z,16.90
2023-09-23T17:12:30.831Z,16.70
2023-09-23T17:15:02.755Z,16.60
2023-09-23T17:17:33.101Z,16.70
2023-09-23T17:20:01.982Z,16.50
2023-09-23T17:22:30.798Z,16.60
2023-09-23T17:25:01.966Z,16.60
2023-09-23T17:27:31.067Z,16.60
2023-09-23T17:30:01.026Z,16.70
2023-09-23T17:32:29.491Z,16.50
2023-09-23T17:34:57.750Z,16.50
2023-09-23T17:37:25.852Z,16.50
2023-09-23T17:39:54.416Z,16.40
2023-09-23T17:42:23.376Z,16.40
2023-09-23T17:44:52.011Z,16.40
2023-09-23T17:47:21.964Z,16.40
2023-09-23T17:49:50.474Z,16.50
2023-09-23T17:52:18.905Z,16.40
2023-09-23T17:54:47.376Z,16.40
2023-09-23T17:57:16.194Z,16.50
2023-09-23T17:59:44.905Z,16.30
2023-09-23T18:02:13.605Z,16.40
2023-09-23T18:04:44.234Z,16.10
2023-09-23T18:07:12.535Z,16.30
2023-09-23T18:09:42.134Z,16.40
2023-09-23T18:12:11.942Z,16.40
2023-09-23T18:14:40.572Z,16.40
2023-09-23T18:17:09.380Z,16.30
2023-09-23T18:19:38.175Z,16.40
2023-09-23T18:22:08.620Z,16.40
2023-09-23T18:24:36.886Z,16.40
2023-09-23T18:27:05.286Z,16.30
2023-09-23T18:29:33.530Z,16.00
2023-09-23T18:32:01.879Z,16.00
2023-09-23T18:34:30.410Z,16.00
2023-09-23T18:36:58.871Z,16.00
2023-09-23T18:39:28.431Z,16.10
2023-09-23T18:41:56.637Z,16.00
2023-09-23T18:44:25.387Z,16.10
2023-09-23T18:46:55.436Z,16.10
2023-09-23T18:49:23.991Z,16.00
2023-09-23T18:51:52.515Z,16.00
2023-09-23T18:54:20.820Z,16.10
2023-09-23T18:56:51.565Z,16.20
2023-09-23T18:59:20.172Z,16.20
2023-09-23T19:01:48.676Z,16.20
2023-09-23T19:04:17.858Z,16.20
2023-09-23T19:06:46.390Z,16.20
2023-09-23T19:09:14.906Z,16.00
2023-09-23T19:11:43.452Z,16.00
2023-09-23T19:14:13.928Z,16.00
2023-09-23T19:16:42.326Z,15.90
2023-09-23T19:19:11.398Z,16.10
2023-09-23T19:21:40.683Z,16.10
2023-09-23T19:24:09.931Z,16.10
2023-09-23T19:26:53.687Z,16.00
2023-09-23T19:29:23.840Z,16.00
2023-09-23T19:31:52.450Z,16.00
2023-09-23T19:34:20.916Z,16.00
2023-09-23T19:36:49.125Z,16.00
2023-09-23T19:39:18.059Z,16.10
2023-09-23T19:41:46.444Z,16.00
2023-09-23T19:44:15.586Z,16.00
2023-09-23T19:46:45.616Z,16.00
2023-09-23T19:49:14.157Z,16.00
2023-09-23T19:51:42.566Z,15.90
2023-09-23T19:54:11.151Z,15.90
2023-09-23T19:56:39.757Z,15.90
2023-09-23T19:59:08.551Z,15.90
2023-09-23T20:01:39.101Z,16.00
2023-09-23T20:04:08.972Z,16.00
2023-09-23T20:06:37.524Z,15.90
2023-09-23T20:09:06.431Z,16.00
2023-09-23T20:11:34.798Z,16.00
2023-09-23T20:14:03.587Z,16.00
2023-09-23T20:16:33.095Z,15.90
2023-09-23T20:19:01.438Z,15.90
2023-09-23T20:21:31.266Z,15.70
2023-09-23T20:23:59.816Z,15.90
2023-09-23T20:26:28.503Z,15.70
2023-09-23T20:28:57.212Z,15.80
2023-09-23T20:31:26.331Z,15.80
2023-09-23T20:33:55.152Z,15.90
2023-09-23T20:36:23.650Z,15.90
2023-09-23T20:38:53.929Z,15.90
2023-09-23T20:41:22.433Z,15.90
2023-09-23T20:43:51.734Z,15.90
2023-09-23T20:46:20.611Z,15.90
2023-09-23T20:48:49.329Z,15.90
2023-09-23T20:51:18.095Z,15.80
2023-09-23T20:53:46.746Z,15.80
2023-09-23T20:56:16.558Z,15.60
2023-09-23T20:58:44.925Z,15.60
2023-09-23T21:01:13.103Z,15.70
2023-09-23T21:03:42.782Z,15.60
2023-09-23T21:06:11.580Z,15.80
2023-09-23T21:08:40.428Z,15.70
2023-09-23T21:11:09.446Z,15.80
2023-09-23T21:13:39.793Z,15.80
2023-09-23T21:16:10.640Z,15.80
2023-09-23T21:18:39.287Z,15.80
2023-09-23T21:21:07.709Z,15.70
2023-09-23T21:23:35.981Z,15.80
2023-09-23T21:26:04.225Z,15.70
2023-09-23T21:28:32.716Z,15.70
2023-09-23T21:31:03.998Z,15.70
2023-09-23T21:33:33.095Z,15.70
2023-09-23T21:36:01.466Z,15.60
2023-09-23T21:38:31.574Z,15.50
2023-09-23T21:41:00.396Z,15.40
2023-09-23T21:43:28.983Z,15.50
2023-09-23T21:45:58.175Z,15.50
2023-09-23T21:48:27.994Z,15.30
2023-09-23T21:51:01.651Z,15.10
2023-09-23T21:53:30.533Z,15.10
2023-09-23T21:55:59.560Z,15.10
2023-09-23T21:58:28.221Z,15.10
2023-09-23T22:01:00.940Z,15.00
2023-09-23T22:03:31.759Z,15.10
2023-09-23T22:06:00.714Z,14.90
2023-09-23T22:08:29.547Z,14.90
2023-09-23T22:10:58.006Z,14.90
2023-09-23T22:13:26.598Z,14.70
2023-09-23T22:15:54.872Z,14.60
2023-09-23T22:18:23.945Z,14.50
2023-09-23T22:20:54.090Z,14.50
2023-09-23T22:23:22.871Z,14.50
2023-09-23T22:25:51.837Z,14.80
2023-09-23T22:28:20.022Z,14.90
2023-09-23T22:30:48.986Z,15.00
2023-09-23T22:33:17.391Z,15.00
2023-09-23T22:35:46.208Z,15.00
2023-09-23T22:38:16.826Z,15.00
2023-09-23T22:40:45.053Z,14.90
2023-09-23T22:43:13.511Z,14.90
2023-09-23T22:45:42.327Z,14.80
2023-09-23T22:48:10.686Z,14.80
2023-09-23T22:50:39.365Z,14.80
2023-09-23T22:53:09.002Z,14.70
2023-09-23T22:55:38.871Z,14.60
2023-09-23T22:58:08.176Z,14.60
2023-09-23T23:00:37.424Z,14.50
2023-09-23T23:03:08.190Z,14.40
2023-09-23T23:05:38.690Z,14.40
2023-09-23T23:08:09.536Z,14.10
2023-09-23T23:10:39.221Z,14.20
2023-09-23T23:13:10.843Z,14.20
2023-09-23T23:15:40.300Z,13.90
2023-09-23T23:18:09.248Z,13.70
2023-09-23T23:20:38.060Z,13.80
2023-09-23T23:23:06.412Z,13.70
2023-09-23T23:25:39.189Z,13.80
2023-09-23T23:28:08.280Z,13.90
2023-09-23T23:30:38.266Z,13.90
2023-09-23T23:33:06.798Z,13.70
2023-09-23T23:35:38.496Z,13.70
2023-09-23T23:38:07.255Z,13.70
2023-09-23T23:40:35.746Z,13.50
2023-09-23T23:43:06.807Z,13.30
2023-09-23T23:45:35.342Z,13.10
2023-09-23T23:48:04.020Z,13.00
2023-09-23T23:50:32.496Z,12.90
2023-09-23T23:53:00.689Z,12.80
2023-09-23T23:55:29.108Z,12.80
2023-09-23T23:57:57.222Z,12.70
